Time;durP1;ratioP1;P1;durP2;ratioP2;P2;SDS_P1;SDS_P2;PMS_P1;PMS_P2;Temp;Humidity;BMP_temperature;BMP_pressure;BME280_temperature;BME280_humidity;BME280_pressure;Samples;Min_cycle;Max_cycle;Signal;HPM_P1;HPM_P2
2021/11/01 00:00:00;;;;;;;43.98;19.98;;;;;;;5.41;69.46;98402.15;2220586;80;21107;-65
2021/11/01 00:03:01;;;;;;;46.30;21.50;;;;;;;5.35;69.56;98397.61;2220813;80;21591;-65
2021/11/01 00:06:05;;;;;;;49.23;22.07;;;;;;;5.27;69.75;98396.28;2220779;80;21004;-66
2021/11/01 00:09:06;;;;;;;43.85;19.57;;;;;;;5.27;69.84;98398.44;2190369;80;21478;-66
2021/11/01 00:12:08;;;;;;;43.80;20.57;;;;;;;5.23;70.20;98395.59;2220642;80;20961;-65
2021/11/01 00:15:09;;;;;;;42.83;20.45;;;;;;;5.18;70.11;98398.84;2220689;80;21971;-65
2021/11/01 00:18:11;;;;;;;45.90;20.37;;;;;;;5.15;70.48;98396.39;2220791;80;21060;-65
2021/11/01 00:21:12;;;;;;;44.43;19.60;;;;;;;5.18;71.12;98385.37;2220697;80;22240;-65
2021/11/01 00:24:14;;;;;;;41.73;19.75;;;;;;;5.15;70.28;98389.89;2216155;80;21069;-66
2021/11/01 00:27:16;;;;;;;45.33;21.00;;;;;;;5.14;70.23;98390.80;2210056;81;21575;-65
2021/11/01 00:30:17;;;;;;;43.95;19.35;;;;;;;5.14;70.29;98385.16;2210313;81;20969;-65
2021/11/01 00:33:19;;;;;;;41.23;19.60;;;;;;;5.13;70.21;98388.66;2210245;81;21083;-65
2021/11/01 00:36:20;;;;;;;43.73;19.52;;;;;;;5.17;70.28;98385.45;2210613;81;20969;-66
2021/11/01 00:39:22;;;;;;;42.78;19.77;;;;;;;5.19;70.25;98380.57;2210243;81;20984;-65
2021/11/01 00:42:23;;;;;;;45.20;20.17;;;;;;;5.10;70.32;98374.95;2210576;81;20968;-65
2021/11/01 00:45:25;;;;;;;41.65;19.77;;;;;;;5.02;70.58;98378.73;2210209;81;21649;-65
2021/11/01 00:48:26;;;;;;;44.80;19.25;;;;;;;5.01;70.98;98368.41;2210223;81;21091;-65
2021/11/01 00:51:27;;;;;;;38.67;18.37;;;;;;;5.00;70.61;98358.48;2210216;81;21067;-65
2021/11/01 00:54:29;;;;;;;43.95;19.98;;;;;;;4.95;70.68;98356.54;2209969;81;21619;-65
2021/11/01 00:57:31;;;;;;;42.75;19.02;;;;;;;4.92;70.72;98356.69;2210214;81;21051;-65
2021/11/01 01:00:32;;;;;;;44.93;20.27;;;;;;;4.89;71.03;98352.09;2210196;81;21558;-65
2021/11/01 01:03:34;;;;;;;46.40;20.40;;;;;;;4.88;71.12;98341.30;2210451;81;20980;-65
2021/11/01 01:06:35;;;;;;;43.33;19.37;;;;;;;4.84;71.66;98336.25;2210152;81;20965;-65
2021/11/01 01:09:37;;;;;;;40.50;18.65;;;;;;;4.76;71.79;98339.64;2210294;81;20973;-65
2021/11/01 01:18:45;;;;;;;41.98;19.07;;;;;;;4.65;72.14;98337.52;2188803;81;21448;-65
2021/11/01 01:24:49;;;;;;;41.45;18.35;;;;;;;4.64;71.45;98328.48;2188599;81;21001;-66
2021/11/01 01:27:51;;;;;;;39.18;17.65;;;;;;;4.58;71.40;98328.77;2210325;81;21514;-65
2021/11/01 01:30:55;;;;;;;39.18;18.48;;;;;;;4.56;71.82;98329.31;2210308;81;20949;-65
2021/11/01 01:33:55;;;;;;;41.53;18.67;;;;;;;4.53;71.55;98323.79;2188577;81;21028;-65
2021/11/01 01:36:57;;;;;;;39.78;18.30;;;;;;;4.52;72.07;98324.69;2210208;81;21598;-66
2021/11/01 01:39:59;;;;;;;42.13;18.55;;;;;;;4.46;72.33;98322.38;2209973;81;20993;-66
2021/11/01 01:43:01;;;;;;;40.75;18.20;;;;;;;4.43;71.99;98327.24;2210326;81;20972;-66
2021/11/01 01:46:03;;;;;;;40.55;18.00;;;;;;;4.45;72.28;98321.55;2210160;81;21546;-65
2021/11/01 01:49:04;;;;;;;42.67;17.65;;;;;;;4.42;71.93;98310.44;2210100;81;21031;-65
2021/11/01 01:52:06;;;;;;;43.90;18.62;;;;;;;4.45;71.85;98316.34;2210156;81;21486;-66
2021/11/01 01:55:08;;;;;;;38.73;17.98;;;;;;;4.54;71.63;98314.23;2210533;81;21011;-66
2021/11/01 01:58:10;;;;;;;39.90;18.42;;;;;;;4.49;71.67;98307.95;2209826;81;21837;-66
2021/11/01 02:01:14;;;;;;;40.35;17.52;;;;;;;4.46;71.81;98308.09;2210151;81;21060;-66
2021/11/01 02:04:15;;;;;;;38.78;17.75;;;;;;;4.41;72.54;98298.35;2188721;81;21055;-65
2021/11/01 02:07:17;;;;;;;39.33;17.65;;;;;;;4.39;72.16;98298.42;2210574;81;21019;-65
2021/11/01 02:10:18;;;;;;;42.37;19.23;;;;;;;4.38;72.28;98293.30;2210405;81;20985;-65
2021/11/01 02:13:20;;;;;;;38.13;17.45;;;;;;;4.40;72.31;98292.79;2210187;81;21653;-65
2021/11/01 02:16:21;;;;;;;43.40;17.15;;;;;;;4.40;72.37;98287.13;2210098;81;21638;-66
2021/11/01 02:19:22;;;;;;;38.70;17.00;;;;;;;4.44;72.00;98293.02;2210249;81;21021;-66
2021/11/01 02:22:24;;;;;;;38.95;17.48;;;;;;;4.41;71.98;98297.91;2210181;81;21032;-66
2021/11/01 02:25:25;;;;;;;39.80;17.65;;;;;;;4.43;71.91;98292.18;2216477;80;21075;-66
2021/11/01 02:28:27;;;;;;;37.20;16.60;;;;;;;4.47;72.24;98282.52;2220803;80;21036;-65
2021/11/01 02:31:28;;;;;;;40.28;17.05;;;;;;;4.49;71.76;98284.11;2220757;80;21035;-65
2021/11/01 02:34:30;;;;;;;37.75;16.07;;;;;;;4.50;71.85;98282.38;2220771;80;20953;-65
2021/11/01 02:37:31;;;;;;;38.98;16.15;;;;;;;4.48;71.77;98269.46;2220773;80;21543;-65
2021/11/01 02:40:34;;;;;;;36.98;16.87;;;;;;;4.45;71.71;98270.91;2220650;80;21540;-65
2021/11/01 02:43:36;;;;;;;37.78;17.30;;;;;;;4.55;71.67;98272.60;2220968;80;21018;-66
2021/11/01 02:46:38;;;;;;;39.03;16.32;;;;;;;4.59;71.55;98267.66;2221213;80;21534;-65
2021/11/01 02:49:39;;;;;;;35.95;16.17;;;;;;;4.54;71.58;98264.88;2220960;80;20984;-66
2021/11/01 02:52:41;;;;;;;37.73;16.30;;;;;;;4.46;71.61;98266.54;2221106;80;21666;-66
2021/11/01 02:55:42;;;;;;;36.42;15.08;;;;;;;4.39;72.60;98262.53;2220965;80;21075;-66
2021/11/01 02:58:44;;;;;;;34.73;15.45;;;;;;;4.33;72.33;98264.95;2220952;80;21519;-65
2021/11/01 03:01:46;;;;;;;34.63;15.93;;;;;;;4.24;73.10;98253.66;2221085;80;21019;-65
2021/11/01 03:04:47;;;;;;;37.25;16.32;;;;;;;4.24;73.10;98253.66;2221079;80;20952;-65
2021/11/01 03:07:49;;;;;;;39.73;15.75;;;;;;;4.21;72.72;98245.56;2220884;80;21044;-66
2021/11/01 03:10:52;;;;;;;36.53;15.43;;;;;;;4.21;73.28;98242.97;2221198;80;20972;-65
2021/11/01 03:13:54;;;;;;;34.80;15.72;;;;;;;4.16;73.33;98245.75;2221206;80;21036;-66
2021/11/01 03:16:55;;;;;;;34.90;15.28;;;;;;;4.18;72.79;98244.84;2221210;80;21576;-66
2021/11/01 03:19:57;;;;;;;38.13;16.87;;;;;;;4.18;72.79;98244.84;2221208;80;21051;-66
2021/11/01 03:22:59;;;;;;;34.20;15.35;;;;;;;4.19;72.63;98242.65;2220959;80;21052;-65
2021/11/01 03:26:00;;;;;;;35.83;15.45;;;;;;;4.21;73.04;98239.52;2213265;80;20981;-65
2021/11/01 03:29:02;;;;;;;34.48;15.20;;;;;;;4.24;72.50;98232.45;2210578;81;21024;-65
2021/11/01 03:32:03;;;;;;;34.98;15.60;;;;;;;4.23;72.75;98235.11;2210672;81;21020;-66
2021/11/01 03:35:05;;;;;;;42.00;16.30;;;;;;;4.24;72.67;98228.55;2210557;81;21020;-65
2021/11/01 03:38:07;;;;;;;38.98;15.90;;;;;;;4.27;72.46;98231.01;2210193;81;21071;-65
2021/11/01 03:41:10;;;;;;;36.73;14.83;;;;;;;4.27;72.43;98226.28;2210183;81;21068;-65
2021/11/01 03:47:16;;;;;;;35.28;15.13;;;;;;;4.29;72.56;98230.94;2188805;81;21024;-66
2021/11/01 03:50:31;;;;;;;34.45;14.75;;;;;;;4.25;72.43;98222.89;2210394;81;21633;-65
2021/11/01 03:53:21;;;;;;;34.48;14.93;;;;;;;4.27;72.84;98223.22;2188917;81;21008;-66
2021/11/01 03:56:22;;;;;;;36.98;15.45;;;;;;;4.24;72.53;98219.47;2210402;81;20992;-65
2021/11/01 03:59:24;;;;;;;36.20;15.72;;;;;;;4.26;72.57;98220.69;2210496;81;21005;-65
2021/11/01 04:02:25;;;;;;;36.13;15.32;;;;;;;4.33;72.23;98219.51;2210411;81;20981;-65
2021/11/01 04:05:27;;;;;;;33.80;14.33;;;;;;;4.35;72.15;98215.08;2210285;81;21091;-66
2021/11/01 04:08:29;;;;;;;35.45;15.32;;;;;;;4.33;72.11;98213.84;2210411;81;21048;-65
2021/11/01 04:11:31;;;;;;;35.52;15.53;;;;;;;4.32;72.07;98213.92;2210237;81;21063;-66
2021/11/01 04:17:40;;;;;;;37.33;15.80;;;;;;;4.33;72.12;98213.02;2188876;81;20109;-65
2021/11/01 04:23:43;;;;;;;34.55;15.18;;;;;;;4.30;72.09;98209.27;2188889;81;21024;-65
2021/11/01 04:26:44;;;;;;;33.50;15.10;;;;;;;4.28;72.20;98213.23;2219594;80;21592;-66
2021/11/01 04:29:46;;;;;;;36.20;15.38;;;;;;;4.33;72.08;98208.66;2220626;80;21024;-65
2021/11/01 04:32:53;;;;;;;38.10;15.28;;;;;;;4.35;71.95;98208.58;2220248;80;21603;-65
2021/11/01 04:35:52;;;;;;;34.35;15.43;;;;;;;4.29;71.95;98202.37;2190349;80;21004;-66
2021/11/01 04:52:54;;;;;;;38.45;15.95;;;;;;;4.19;72.06;98201.11;2220588;80;21042;-65
2021/11/01 04:54:08;;;;;;;35.43;15.80;;;;;;;4.04;72.63;98199.59;2190460;80;20973;-65
2021/11/01 04:57:10;;;;;;;37.25;16.60;;;;;;;4.00;72.74;98195.44;2220778;80;21090;-66
2021/11/01 05:00:11;;;;;;;34.63;15.50;;;;;;;3.93;72.94;98194.03;2220687;80;21119;-65
2021/11/01 05:06:22;;;;;;;38.85;16.93;;;;;;;3.94;72.74;98197.02;2190412;80;21476;-65
2021/11/01 05:09:26;;;;;;;36.10;16.30;;;;;;;3.89;72.77;98188.12;2190072;80;21012;-65
2021/11/01 05:18:37;;;;;;;38.28;15.90;;;;;;;3.78;73.35;98183.41;2190367;80;21527;-65
2021/11/01 05:21:41;;;;;;;37.00;15.98;;;;;;;3.75;73.23;98186.58;2190581;80;20995;-65
2021/11/01 05:24:41;;;;;;;36.68;16.00;;;;;;;3.70;73.30;98184.66;2190445;80;21127;-66
2021/11/01 05:27:47;;;;;;;36.50;16.12;;;;;;;3.72;74.09;98179.80;2190285;80;21083;-65
2021/11/01 05:36:50;;;;;;;37.03;16.10;;;;;;;3.74;73.35;98179.27;2190303;80;21483;-66
2021/11/01 05:39:52;;;;;;;36.40;15.58;;;;;;;3.77;73.71;98182.19;2220595;80;21064;-66
2021/11/01 05:42:53;;;;;;;36.30;15.43;;;;;;;3.73;73.48;98180.16;2220579;80;21056;-66
2021/11/01 05:45:55;;;;;;;35.73;15.40;;;;;;;3.75;73.50;98180.95;2220695;80;20999;-65
2021/11/01 05:48:58;;;;;;;36.17;15.50;;;;;;;3.77;73.76;98184.78;2220557;80;21530;-65
2021/11/01 05:52:03;;;;;;;34.78;14.93;;;;;;;3.80;73.62;98181.58;2220601;80;21048;-66
2021/11/01 06:07:25;;;;;;;35.70;15.23;;;;;;;3.86;73.77;98179.17;2220581;80;21075;-65
2021/11/01 06:16:24;;;;;;;33.25;14.63;;;;;;;4.02;73.47;98174.61;2190315;80;20972;-65
2021/11/01 06:19:26;;;;;;;36.23;15.32;;;;;;;4.08;73.40;98167.41;2220785;80;21091;-65
2021/11/01 06:22:27;;;;;;;34.60;15.30;;;;;;;4.19;73.39;98172.09;2220725;80;21107;-65
2021/11/01 06:25:29;;;;;;;35.88;14.60;;;;;;;4.30;73.08;98169.85;2220581;80;21599;-65
2021/11/01 06:28:31;;;;;;;37.40;15.35;;;;;;;4.38;72.97;98163.47;2220464;80;21079;-65
2021/11/01 06:31:38;;;;;;;33.35;14.63;;;;;;;4.42;72.89;98168.44;2220620;80;21071;-65
2021/11/01 06:38:57;;;;;;;39.08;15.43;;;;;;;4.49;72.68;98171.13;2190450;80;21519;-65
2021/11/01 06:49:57;;;;;;;32.83;14.65;;;;;;;5.36;71.36;98182.60;2190354;80;21032;-65
2021/11/01 07:14:08;;;;;;;31.60;13.58;;;;;;;6.23;69.36;98181.18;2190512;80;20984;-65
2021/11/01 07:39:04;;;;;;;32.33;13.45;;;;;;;7.86;64.70;98171.55;2163327;82;20953;-65
2021/11/01 08:36:53;;;;;;;29.15;13.32;;;;;;;10.51;60.41;98122.41;2173983;81;21278;-65
2021/11/01 08:52:16;;;;;;;31.05;15.50;;;;;;;11.12;57.89;98130.22;2173929;81;21015;-65
2021/11/01 09:43:53;;;;;;;27.30;12.20;;;;;;;13.29;53.45;98076.80;2188714;81;21000;-65
2021/11/01 09:46:54;;;;;;;28.80;11.45;;;;;;;13.41;54.23;98076.27;2188701;81;21000;-65
2021/11/01 09:49:55;;;;;;;25.80;10.90;;;;;;;13.75;54.31;98082.62;2210684;81;20988;-65
2021/11/01 09:52:58;;;;;;;24.40;10.65;;;;;;;13.90;53.03;98076.98;2210429;81;21040;-65
2021/11/01 10:02:05;;;;;;;27.22;10.60;;;;;;;14.07;52.49;98064.98;2188676;81;21084;-65
2021/11/01 10:05:07;;;;;;;26.47;11.73;;;;;;;14.26;52.20;98059.73;2210522;81;21520;-65
2021/11/01 10:08:08;;;;;;;24.60;11.13;;;;;;;14.31;50.91;98058.00;2210545;81;21024;-65
2021/11/01 10:11:10;;;;;;;25.50;10.90;;;;;;;14.38;49.16;98054.70;2210528;81;21522;-65
2021/11/01 10:14:13;;;;;;;26.75;11.40;;;;;;;14.51;51.68;98053.12;2209965;81;21116;-65
2021/11/01 10:20:19;;;;;;;27.87;12.35;;;;;;;14.69;50.66;98045.88;2188720;81;21012;-65
2021/11/01 10:23:22;;;;;;;25.88;10.95;;;;;;;14.78;50.32;98045.02;2210178;81;21563;-64
2021/11/01 10:26:29;;;;;;;25.00;10.70;;;;;;;14.89;48.97;98045.38;2185427;81;21558;-65
2021/11/01 10:29:27;;;;;;;23.55;9.98;;;;;;;14.91;50.03;98042.10;2173611;81;21068;-65
2021/11/01 10:32:29;;;;;;;24.92;10.98;;;;;;;15.01;49.18;98035.50;2201382;81;21611;-65
2021/11/01 10:35:31;;;;;;;28.77;10.40;;;;;;;15.22;48.87;98026.91;2201884;81;20989;-65
2021/11/01 10:38:36;;;;;;;;;;;;;;;15.31;48.96;98020.43;2203942;81;20961;-65
2021/11/01 10:41:42;;;;;;;26.57;10.80;;;;;;;15.31;48.48;98010.69;2173892;81;20108;-65
2021/11/01 10:44:49;;;;;;;26.10;10.60;;;;;;;15.33;47.85;98008.75;2173411;81;21104;-65
2021/11/01 10:57:16;;;;;;;26.42;10.32;;;;;;;15.63;48.04;97997.59;2173844;81;21033;-65
2021/11/01 11:12:17;;;;;;;25.60;9.83;;;;;;;16.48;46.72;98001.36;2174038;81;21016;-65
2021/11/01 11:15:14;;;;;;;22.42;9.60;;;;;;;16.60;46.02;97994.01;2173917;81;21033;-65
2021/11/01 11:39:52;;;;;;;24.32;9.65;;;;;;;16.78;45.77;97971.50;2193319;80;21484;-65
2021/11/01 11:48:48;;;;;;;24.82;9.60;;;;;;;16.99;45.30;97971.16;2193156;80;21484;-65
2021/11/01 11:51:49;;;;;;;23.25;9.38;;;;;;;17.04;45.05;97970.22;2223513;80;21031;-65
2021/11/01 11:57:54;;;;;;;24.27;9.45;;;;;;;17.17;45.09;97964.50;2193319;80;21019;-65
2021/11/01 12:00:56;;;;;;;25.92;9.25;;;;;;;17.19;42.48;97960.38;2223891;80;21087;-65
2021/11/01 12:03:57;;;;;;;25.60;10.43;;;;;;;17.22;45.07;97962.70;2223660;80;21028;-65
2021/11/01 12:07:00;;;;;;;25.70;10.07;;;;;;;17.27;44.31;97957.77;2223781;80;21046;-65
2021/11/01 12:10:04;;;;;;;23.83;9.80;;;;;;;17.28;44.20;97952.31;2223277;80;21694;-65
2021/11/01 12:13:14;;;;;;;24.77;10.18;;;;;;;17.32;44.54;97954.14;2193366;80;21020;-65
2021/11/01 12:19:12;;;;;;;23.38;9.65;;;;;;;17.41;44.11;97949.23;2193100;80;21040;-65
2021/11/01 12:22:14;;;;;;;24.32;9.80;;;;;;;17.50;44.15;97950.09;2223563;80;20996;-65
2021/11/01 12:25:17;;;;;;;24.67;9.45;;;;;;;17.63;43.78;97943.03;2223423;80;21058;-65
2021/11/01 12:28:19;;;;;;;25.75;10.05;;;;;;;17.60;43.70;97942.02;2220828;80;21575;-65
2021/11/01 12:31:21;;;;;;;26.33;10.23;;;;;;;17.61;43.11;97939.21;2220508;80;21072;-65
2021/11/01 12:34:24;;;;;;;24.65;10.72;;;;;;;17.41;41.77;97945.26;2220682;80;21587;-65
2021/11/01 12:37:29;;;;;;;25.75;10.30;;;;;;;17.30;43.35;97941.55;2220682;80;21011;-65
2021/11/01 12:40:36;;;;;;;26.70;10.32;;;;;;;17.31;43.03;97941.87;2190387;80;20988;-65
2021/11/01 12:58:45;;;;;;;24.55;9.60;;;;;;;17.10;43.12;97933.82;2190278;80;20975;-65
2021/11/01 13:01:47;;;;;;;22.83;9.47;;;;;;;17.16;43.96;97934.19;2220859;80;20957;-65
2021/11/01 13:04:49;;;;;;;25.20;10.88;;;;;;;17.23;43.00;97930.74;2220712;80;21056;-65
2021/11/01 13:07:56;;;;;;;23.77;9.95;;;;;;;17.22;43.24;97922.95;2220494;80;21099;-65
2021/11/01 13:10:57;;;;;;;26.23;9.08;;;;;;;17.24;43.73;97926.27;2190234;80;21485;-65
2021/11/01 13:14:15;;;;;;;22.48;8.90;;;;;;;17.33;43.75;97927.98;2190136;80;21582;-65
2021/11/01 13:20:05;;;;;;;23.62;9.50;;;;;;;17.25;43.27;97927.94;2189955;80;21016;-65
2021/11/01 13:23:07;;;;;;;23.22;9.53;;;;;;;17.19;43.56;97924.09;2220611;80;21075;-65
2021/11/01 13:35:30;;;;;;;23.98;8.70;;;;;;;17.03;43.59;97912.91;2188760;81;21008;-65
2021/11/01 13:38:20;;;;;;;23.38;8.20;;;;;;;16.98;43.58;97913.87;2188657;81;21000;-65
2021/11/01 13:41:27;;;;;;;21.83;8.10;;;;;;;16.96;43.73;97918.50;2210562;81;21527;-66
2021/11/01 13:44:25;;;;;;;21.60;8.95;;;;;;;16.96;44.01;97910.05;2188592;81;20984;-65
2021/11/01 13:47:26;;;;;;;22.25;8.60;;;;;;;16.85;43.74;97906.34;2210423;80;21013;-65
2021/11/01 13:50:28;;;;;;;20.72;8.05;;;;;;;16.79;43.83;97909.11;2210379;81;21573;-65
2021/11/01 13:53:33;;;;;;;24.10;9.13;;;;;;;16.68;43.56;97900.57;2210566;80;20980;-65
2021/11/01 14:11:55;;;;;;;23.02;8.78;;;;;;;16.06;43.94;97896.11;2188457;81;21028;-65
2021/11/01 14:14:59;;;;;;;20.80;8.25;;;;;;;15.97;43.98;97889.91;2188708;81;21016;-65
2021/11/01 14:27:20;;;;;;;24.45;8.95;;;;;;;15.53;44.93;97885.78;2191468;80;20974;-65
2021/11/01 15:01:00;;;;;;;28.00;11.40;;;;;;;13.90;47.31;97892.47;2221071;80;21478;-65
2021/11/01 15:10:09;;;;;;;25.97;10.50;;;;;;;13.34;48.14;97892.04;2192939;80;21019;-65
2021/11/01 15:31:54;;;;;;;26.52;10.70;;;;;;;12.19;50.27;97895.56;2188733;81;21048;-65
2021/11/01 15:34:34;;;;;;;26.60;10.25;;;;;;;12.02;50.42;97900.89;2188806;81;21013;-65
2021/11/01 16:15:23;;;;;;;31.07;12.45;;;;;;;11.72;51.24;97897.16;2188993;81;21511;-65
2021/11/01 16:20:03;;;;;;;37.95;17.60;;;;;;;10.64;53.63;97898.14;2210454;81;20985;-66
2021/11/01 16:29:13;;;;;;;33.13;14.20;;;;;;;10.42;54.29;97901.56;2188334;81;21543;-65
2021/11/01 16:32:18;;;;;;;31.73;13.93;;;;;;;10.36;54.55;97908.09;2188785;81;21573;-65
2021/11/01 16:35:21;;;;;;;32.05;14.20;;;;;;;10.28;55.10;97909.11;2188806;81;20984;-65
2021/11/01 16:38:24;;;;;;;32.10;13.50;;;;;;;10.21;55.31;97909.57;2188938;81;21614;-65
2021/11/01 16:41:24;;;;;;;29.87;13.55;;;;;;;10.10;56.29;97913.45;2188751;81;21518;-65
2021/11/01 16:44:28;;;;;;;31.87;13.80;;;;;;;9.93;55.83;97910.75;2210669;81;20976;-65
2021/11/01 16:47:29;;;;;;;29.05;13.18;;;;;;;9.85;56.12;97913.91;2188829;81;21566;-66
2021/11/01 16:50:30;;;;;;;30.72;13.85;;;;;;;9.77;56.11;97911.03;2210362;81;21086;-66
2021/11/01 16:53:33;;;;;;;30.05;13.28;;;;;;;9.73;56.19;97913.99;2210455;81;21417;-65
2021/11/01 17:27:15;;;;;;;32.67;14.70;;;;;;;9.18;58.30;97902.56;2211204;80;21028;-66
2021/11/01 18:40:36;;;;;;;40.55;19.77;;;;;;;8.15;62.13;97873.76;2188777;81;20993;-65
2021/11/01 18:43:45;;;;;;;38.73;18.12;;;;;;;8.05;63.70;97867.48;2189052;81;20996;-65
2021/11/01 18:50:45;;;;;;;39.70;19.57;;;;;;;8.03;63.04;97870.64;2188909;81;21503;-65
2021/11/01 18:52:38;;;;;;;37.45;18.55;;;;;;;7.96;62.62;97871.05;2189055;81;21031;-65
2021/11/01 18:55:40;;;;;;;39.48;18.37;;;;;;;7.96;62.68;97860.61;2210638;81;20953;-65
2021/11/01 18:58:41;;;;;;;38.42;18.40;;;;;;;7.95;63.15;97862.02;2210813;81;20968;-65
2021/11/01 19:01:42;;;;;;;40.12;18.95;;;;;;;7.91;62.89;97866.59;2210445;81;21024;-65
2021/11/01 19:04:51;;;;;;;37.95;17.50;;;;;;;7.90;62.97;97867.99;2210673;81;21495;-65
2021/11/01 20:05:53;;;;;;;43.17;20.95;;;;;;;7.32;64.79;97887.75;2188756;81;21555;-65
2021/11/01 21:25:16;;;;;;;47.85;23.50;;;;;;;6.37;66.98;97851.39;2188322;81;21035;-65
2021/11/01 21:28:17;;;;;;;45.70;22.98;;;;;;;6.36;67.12;97862.25;2212396;80;21076;-65
2021/11/01 21:31:19;;;;;;;49.90;24.43;;;;;;;6.31;67.25;97856.48;2221198;80;21019;-66
2021/11/01 21:37:24;;;;;;;47.27;22.42;;;;;;;6.32;67.12;97854.71;2192884;80;20984;-65
2021/11/01 21:40:25;;;;;;;47.75;23.42;;;;;;;6.29;67.51;97852.30;2221315;80;21023;-65
2021/11/01 21:43:27;;;;;;;47.10;22.98;;;;;;;6.34;67.41;97853.70;2221047;80;21019;-65
2021/11/01 21:46:28;;;;;;;47.73;23.52;;;;;;;6.30;67.50;97850.90;2221048;80;21050;-65
2021/11/01 21:49:30;;;;;;;49.73;22.98;;;;;;;6.30;67.92;97851.37;2220753;80;21026;-65
2021/11/01 21:52:33;;;;;;;46.35;22.32;;;;;;;6.39;67.79;97850.38;2220714;80;21507;-65
2021/11/01 21:55:35;;;;;;;47.30;23.05;;;;;;;6.39;67.80;97843.86;2220825;80;20952;-65
2021/11/01 21:58:57;;;;;;;47.88;22.35;;;;;;;6.45;67.94;97841.80;2220767;80;21067;-65
2021/11/01 22:26:21;;;;;;;47.30;23.12;;;;;;;6.47;68.32;97823.85;2192826;80;21004;-65
2021/11/01 22:56:55;;;;;;;48.73;23.67;;;;;;;6.53;68.89;97809.62;2188724;81;20992;-65
2021/11/01 22:59:42;;;;;;;49.58;23.62;;;;;;;6.50;68.45;97812.41;2188839;81;21526;-65
2021/11/01 23:02:44;;;;;;;50.40;24.60;;;;;;;6.57;68.43;97804.13;2210692;81;20984;-65
2021/11/01 23:33:20;;;;;;;48.95;25.05;;;;;;;6.59;68.48;97767.11;2189029;81;21016;-65
2021/11/01 23:36:20;;;;;;;51.37;24.15;;;;;;;6.54;68.79;97772.22;2188870;81;21000;-65
2021/11/01 23:39:21;;;;;;;52.23;24.47;;;;;;;6.49;69.14;97771.17;2210397;81;20972;-65
2021/11/01 23:42:23;;;;;;;50.03;25.05;;;;;;;6.46;68.97;97764.86;2210216;81;21076;-64
2021/11/01 23:45:25;;;;;;;49.88;24.30;;;;;;;6.44;69.07;97758.92;2210328;81;21080;-65
2021/11/01 23:48:26;;;;;;;49.53;25.68;;;;;;;6.39;70.28;97755.30;2210937;81;20977;-65
2021/11/01 23:51:30;;;;;;;48.05;23.98;;;;;;;6.33;69.35;97760.03;2210441;81;20995;-65
2021/11/01 23:57:35;;;;;;;56.58;29.15;;;;;;;6.41;69.35;97749.99;2188708;81;21498;-65
